Time;durP1;ratioP1;P1;durP2;ratioP2;P2;SDS_P1;SDS_P2;PMS_P1;PMS_P2;Temp;Humidity;BMP_temperature;BMP_pressure;BME280_temperature;BME280_humidity;BME280_pressure;Samples;Min_cycle;Max_cycle;Signal;HPM_P1;HPM_P2
2022/09/01 00:02:15;;;;;;;;;10.67;10.67;;;;;26.82;43.75;41623.97;4966260;28;45550;-72
2022/09/01 00:04:43;;;;;;;;;13.00;11.67;;;;;26.79;43.45;41958.63;4969730;28;46683;-72
2022/09/01 00:07:11;;;;;;;;;10.67;10.67;;;;;26.83;43.45;41687.06;4980241;28;45457;-72
2022/09/01 00:09:38;;;;;;;;;10.00;10.00;;;;;27.26;42.97;43786.56;4972520;28;47271;-72
2022/09/01 00:12:07;;;;;;;;;10.00;10.00;;;;;26.78;44.09;41586.38;4972931;28;46732;-72
2022/09/01 00:14:38;;;;;;;;;10.33;10.33;;;;;26.74;43.44;41869.06;4973457;28;45432;-73
2022/09/01 00:17:07;;;;;;;;;12.00;10.00;;;;;26.72;43.70;40965.00;4969395;28;45560;-72
2022/09/01 00:19:34;;;;;;;;;5.67;5.67;;;;;26.71;44.05;40272.38;4974256;28;45712;-72
2022/09/01 00:22:00;;;;;;;;;11.00;11.00;;;;;26.73;43.99;39710.53;4976222;28;46216;-72
2022/09/01 00:24:26;;;;;;;;;11.00;11.00;;;;;26.70;44.08;39530.69;4974363;28;45449;-72
2022/09/01 00:26:53;;;;;;;;;12.67;12.67;;;;;26.57;44.54;39023.88;4990780;28;45262;-72
2022/09/01 00:29:18;;;;;;;;;11.67;11.00;;;;;26.65;43.99;38103.03;4971852;28;48744;-72
2022/09/01 00:31:43;;;;;;;;;11.00;11.00;;;;;26.62;44.63;37926.41;4970689;28;47211;-72
2022/09/01 00:34:09;;;;;;;;;11.33;10.00;;;;;26.55;44.25;37964.75;4972110;28;45462;-72
2022/09/01 00:36:34;;;;;;;;;13.67;9.67;;;;;26.52;44.73;37516.34;4971993;28;45581;-73
2022/09/01 00:39:00;;;;;;;;;11.67;11.67;;;;;26.68;44.53;35653.59;4970806;28;46049;-73
2022/09/01 00:41:28;;;;;;;;;12.67;12.00;;;;;26.46;44.57;36161.94;4967076;28;45373;-72
2022/09/01 00:44:04;;;;;;;;;11.00;8.00;;;;;26.39;44.92;36522.88;4968816;28;45501;-72
2022/09/01 00:46:36;;;;;;;;;12.00;11.00;;;;;26.42;44.66;36105.56;4963431;28;45534;-72
2022/09/01 00:49:06;;;;;;;;;11.00;10.00;;;;;26.39;44.75;35267.06;4974309;28;45432;-72
2022/09/01 00:51:36;;;;;;;;;13.33;11.00;;;;;26.35;44.62;34474.22;4971579;28;45391;-72
2022/09/01 00:54:04;;;;;;;;;11.67;11.67;;;;;26.35;45.05;34660.00;4969507;28;45879;-72
2022/09/01 00:56:32;;;;;;;;;14.33;12.33;;;;;26.21;44.78;34227.03;4970841;28;45452;-72
2022/09/01 00:58:59;;;;;;;;;14.33;10.33;;;;;26.27;44.63;33870.31;4974337;28;46159;-72
2022/09/01 01:01:25;;;;;;;;;12.00;12.00;;;;;26.29;45.20;33756.28;4972119;28;45474;-72
2022/09/01 01:03:50;;;;;;;;;11.00;11.00;;;;;26.21;45.17;33571.41;4970921;28;45667;-72
2022/09/01 01:06:18;;;;;;;;;10.33;10.33;;;;;26.22;44.75;33206.63;4970275;28;45552;-72
2022/09/01 01:08:57;;;;;;;;;13.00;10.00;;;;;26.24;44.75;32780.69;4972975;28;48237;-72
2022/09/01 01:11:25;;;;;;;;;14.00;12.67;;;;;26.26;45.39;32346.69;4969885;28;46414;-73
2022/09/01 01:13:56;;;;;;;;;14.67;12.00;;;;;26.19;44.95;31042.88;4973758;28;45612;-73
2022/09/01 01:16:23;;;;;;;;;11.00;11.00;;;;;26.03;45.59;29837.19;4971300;28;45648;-73
2022/09/01 01:18:49;;;;;;;;;15.33;15.33;;;;;26.10;44.98;29725.59;4970172;28;47183;-72
2022/09/01 01:24:21;;;;;;;;;14.00;13.00;;;;;26.02;45.26;28041.91;4999655;28;45446;-73
2022/09/01 01:26:47;;;;;;;;;15.00;12.33;;;;;25.93;45.32;28831.16;4972361;28;45818;-73
2022/09/01 01:29:12;;;;;;;;;16.33;13.67;;;;;25.94;46.05;27753.53;4964162;28;46219;-72
2022/09/01 01:31:38;;;;;;;;;15.33;14.33;;;;;25.93;45.94;26347.91;4972832;28;46629;-73
2022/09/01 01:34:06;;;;;;;;;13.00;12.67;;;;;25.84;46.09;26282.16;4971995;28;45660;-73
2022/09/01 01:36:35;;;;;;;;;15.33;13.67;;;;;25.86;46.14;24774.66;4966988;28;45459;-73
2022/09/01 01:39:06;;;;;;;;;14.00;14.00;;;;;25.83;46.01;24087.50;4961235;28;46072;-73
2022/09/01 01:41:33;;;;;;;;;14.00;12.00;;;;;25.85;46.32;23402.72;4972287;28;45375;-73
2022/09/01 01:44:00;;;;;;;;;13.00;11.00;;;;;25.83;45.93;22716.28;4972760;28;45361;-73
2022/09/01 01:46:26;;;;;;;;;11.67;11.67;;;;;25.84;46.53;22716.50;4962806;28;45529;-73
2022/09/01 01:48:52;;;;;;;;;12.00;12.00;;;;;25.75;46.10;21342.13;4964871;28;45557;-73
2022/09/01 01:51:30;;;;;;;;;14.33;12.33;;;;;25.83;46.51;21688.19;4970246;28;45566;-73
2022/09/01 01:53:58;;;;;;;;;13.33;10.67;;;;;25.85;46.26;21346.38;4967173;28;45550;-73
2022/09/01 01:56:24;;;;;;;;;12.67;11.33;;;;;25.84;46.60;20318.03;4971108;28;45820;-73
2022/09/01 01:58:55;;;;;;;;;9.33;7.33;;;;;25.78;46.78;18603.75;4970376;28;46250;-73
2022/09/01 02:01:27;;;;;;;;;9.00;9.00;;;;;25.79;46.14;17919.28;4968536;28;45300;-73
2022/09/01 02:03:57;;;;;;;;;11.67;10.00;;;;;25.74;46.59;16891.03;4970677;28;46820;-73
2022/09/01 02:06:24;;;;;;;;;11.00;11.00;;;;;25.79;46.85;17577.16;4972806;28;46333;-73
2022/09/01 02:08:57;;;;;;;;;11.00;11.00;;;;;25.78;46.83;17919.09;4970209;28;46133;-73
2022/09/01 02:11:24;;;;;;;;;11.00;10.00;;;;;25.72;46.36;15863.84;4968626;28;45522;-73
2022/09/01 02:13:53;;;;;;;;;11.67;9.67;;;;;25.69;46.65;15863.06;4970888;28;45495;-73
2022/09/01 02:16:19;;;;;;;;;11.67;9.00;;;;;25.59;46.96;15517.94;4968888;28;45579;-73
2022/09/01 02:18:48;;;;;;;;;8.33;8.33;;;;;25.63;46.82;14835.22;4970362;28;45440;-73
2022/09/01 02:21:19;;;;;;;;;12.67;9.00;;;;;25.61;47.32;13467.16;4964064;28;45500;-72
2022/09/01 02:23:47;;;;;;;;;10.33;9.33;;;;;25.59;46.92;12783.09;4978215;28;45517;-73
2022/09/01 02:26:15;;;;;;;;;10.00;10.00;;;;;25.50;47.46;12439.16;4965777;28;45610;-73
2022/09/01 02:28:42;;;;;;;;;12.67;11.67;;;;;25.55;47.42;12098.66;4963185;28;45526;-72
2022/09/01 02:31:10;;;;;;;;;11.67;9.67;;;;;25.51;47.03;10731.38;4972225;28;45473;-72
2022/09/01 02:33:37;;;;;;;;;9.67;9.33;;;;;25.42;47.78;9705.16;4972644;28;45549;-72
2022/09/01 02:36:07;;;;;;;;;10.00;10.00;;;;;25.46;47.04;10047.44;4967600;28;45602;-72
2022/09/01 02:38:33;;;;;;;;;12.33;11.67;;;;;25.43;47.38;9022.69;4963857;28;46246;-73
2022/09/01 02:41:00;;;;;;;;;12.67;11.67;;;;;25.43;47.49;8340.09;4969776;28;45451;-73
2022/09/01 02:43:28;;;;;;;;;12.33;12.33;;;;;25.42;47.67;8340.00;4970383;28;45666;-73
2022/09/01 02:45:58;;;;;;;;;14.67;11.33;;;;;25.34;47.61;8338.47;4966736;28;45549;-73
2022/09/01 02:48:31;;;;;;;;;11.67;11.67;;;;;25.36;47.45;6633.03;4968272;28;46264;-72
2022/09/01 02:51:00;;;;;;;;;13.33;11.00;;;;;25.35;47.98;6291.91;4972862;28;45516;-73
2022/09/01 02:53:26;;;;;;;;;9.67;9.67;;;;;25.36;47.92;5951.03;4970745;28;45238;-73
2022/09/01 02:55:53;;;;;;;;;12.67;9.67;;;;;25.32;48.07;5268.44;4973075;28;45272;-73
2022/09/01 02:58:18;;;;;;;;;9.33;8.00;;;;;25.27;48.02;5949.66;4967009;28;45362;-73
2022/09/01 03:00:51;;;;;;;;;8.67;8.67;;;;;25.28;47.67;5949.81;4960766;28;45559;-73
2022/09/01 03:03:18;;;;;;;;;9.33;8.33;;;;;25.30;48.03;5609.16;4969206;28;45367;-73
2022/09/01 03:05:44;;;;;;;;;8.33;8.33;;;;;25.22;47.52;5267.09;4973635;28;45367;-73
2022/09/01 03:08:14;;;;;;;;;9.33;8.00;;;;;25.26;47.51;5608.56;4972957;28;46979;-73
2022/09/01 03:10:42;;;;;;;;;8.67;8.67;;;;;25.23;47.93;5267.22;4976053;28;45359;-72
2022/09/01 03:13:13;;;;;;;;;7.00;7.00;;;;;25.22;47.69;4926.28;4975504;28;45477;-72
2022/09/01 03:15:39;;;;;;;;;9.67;9.67;;;;;25.20;47.73;4244.34;4976039;28;45312;-73
2022/09/01 03:18:07;;;;;;;;;9.00;9.00;;;;;25.07;47.56;4583.50;4974079;28;47105;-73
2022/09/01 03:20:34;;;;;;;;;7.33;7.33;;;;;25.19;48.09;3222.06;4969209;28;46009;-72
2022/09/01 03:23:03;;;;;;;;;9.00;9.00;;;;;25.12;48.12;2880.66;4973212;28;45606;-73
2022/09/01 03:25:30;;;;;;;;;8.00;8.00;;;;;25.22;48.32;3222.38;4972480;28;45313;-73
2022/09/01 03:28:02;;;;;;;;;9.33;9.33;;;;;25.21;47.95;3222.34;4985954;28;47768;-73
2022/09/01 03:30:29;;;;;;;;;11.67;10.00;;;;;25.12;48.46;2880.72;4970761;28;45595;-73
2022/09/01 03:32:56;;;;;;;;;9.00;8.33;;;;;25.13;48.51;2199.66;4975147;28;45488;-78
2022/09/01 03:35:22;;;;;;;;;9.33;9.33;;;;;25.10;48.37;1518.38;4972032;28;45443;-78
2022/09/01 03:37:47;;;;;;;;;9.00;9.00;;;;;25.05;48.41;1518.00;4971897;28;46285;-78
2022/09/01 03:40:13;;;;;;;;;8.67;8.67;;;;;25.15;48.63;1178.28;4971618;28;45453;-78
2022/09/01 03:42:39;;;;;;;;;10.00;9.00;;;;;25.12;48.64;837.56;4969331;28;45407;-78
2022/09/01 03:45:08;;;;;;;;;9.00;9.00;;;;;25.11;48.40;156.75;4974305;28;45648;-78
2022/09/01 03:47:39;;;;;;;;;11.00;10.00;;;;;25.05;48.34;-864.44;4973688;28;45395;-78
2022/09/01 03:50:11;;;;;;;;;9.33;9.33;;;;;25.10;48.88;497.06;4973927;28;46995;-78
2022/09/01 03:52:39;;;;;;;;;12.00;8.00;;;;;25.06;48.70;-1885.03;4972692;28;45849;-78
2022/09/01 03:55:06;;;;;;;;;11.00;8.00;;;;;25.00;49.06;-4265.31;4972381;28;45756;-78
2022/09/01 03:57:33;;;;;;;;;10.00;9.00;;;;;24.95;49.63;-5964.31;4974274;28;47503;-78
2022/09/01 03:59:59;;;;;;;;;14.00;11.33;;;;;25.00;49.66;-6983.66;4974474;28;45506;-78
2022/09/01 04:02:28;;;;;;;;;11.33;9.00;;;;;24.97;50.03;-8681.44;4974657;28;46581;-78
2022/09/01 04:04:54;;;;;;;;;9.00;8.00;;;;;24.94;50.28;-10038.91;4970616;28;45479;-78
2022/09/01 04:07:19;;;;;;;;;10.00;9.00;;;;;24.89;49.76;-10717.00;4969965;28;47305;-78
2022/09/01 04:09:45;;;;;;;;;8.33;8.33;;;;;24.93;50.02;-12074.41;4970197;28;46810;-78
2022/09/01 04:12:14;;;;;;;;;8.00;8.00;;;;;24.96;50.29;-12414.06;4971853;28;45520;-78
2022/09/01 04:14:40;;;;;;;;;9.00;9.00;;;;;25.02;49.99;-12075.72;4970398;28;45481;-78
2022/09/01 04:19:49;;;;;;;;;8.33;7.67;;;;;25.08;49.98;-12076.47;4968417;28;46867;-78
2022/09/01 04:22:16;;;;;;;;;10.00;7.00;;;;;25.08;50.50;-12076.47;4969463;28;45408;-78
2022/09/01 04:24:44;;;;;;;;;9.67;9.67;;;;;24.96;50.56;-12753.22;4970776;28;46805;-78
2022/09/01 04:27:10;;;;;;;;;8.00;8.00;;;;;25.06;50.54;-12754.66;4967691;28;47301;-78
2022/09/01 04:29:36;;;;;;;;;10.67;8.33;;;;;25.06;50.75;-12754.66;4969336;28;45581;-78
2022/09/01 04:32:08;;;;;;;;;10.00;8.00;;;;;25.01;50.52;-12753.97;4969444;28;45517;-78
2022/09/01 04:34:37;;;;;;;;;6.67;6.67;;;;;25.11;50.49;-12416.16;4970894;28;45412;-78
2022/09/01 04:37:16;;;;;;;;;8.33;8.33;;;;;25.10;50.03;-12415.94;4969531;28;45983;-78
2022/09/01 04:39:51;;;;;;;;;11.00;8.00;;;;;25.13;50.08;-12755.63;4969894;28;45696;-78
2022/09/01 04:42:19;;;;;;;;;8.67;8.33;;;;;25.02;50.72;-13432.41;4970129;28;45604;-78
2022/09/01 04:44:45;;;;;;;;;6.33;6.33;;;;;24.94;50.86;-13431.06;4973120;28;45446;-78
2022/09/01 04:47:15;;;;;;;;;8.67;8.00;;;;;24.99;50.86;-13431.94;4967443;28;46134;-78
2022/09/01 04:49:40;;;;;;;;;9.67;8.00;;;;;25.03;50.50;-13093.44;4974088;28;45410;-78
2022/09/01 04:52:06;;;;;;;;;10.00;8.00;;;;;25.07;50.39;-13093.97;4973885;28;45429;-78
2022/09/01 04:54:33;;;;;;;;;11.00;9.33;;;;;25.04;50.78;-13093.59;4972777;28;45428;-78
2022/09/01 04:56:59;;;;;;;;;8.00;8.00;;;;;25.12;50.56;-12755.47;5054905;27;46398;-78
2022/09/01 04:59:26;;;;;;;;;8.67;7.00;;;;;25.06;50.69;-12754.66;4970296;28;45514;-77
2022/09/01 05:01:54;;;;;;;;;7.33;7.33;;;;;25.14;50.19;-12755.78;4971599;28;45584;-80
2022/09/01 05:04:32;;;;;;;;;8.67;8.67;;;;;25.13;50.41;-12077.19;4968867;28;45527;-80
2022/09/01 05:06:59;;;;;;;;;10.67;7.67;;;;;25.15;50.49;-12416.75;4961175;28;46030;-80
2022/09/01 05:09:28;;;;;;;;;9.00;8.33;;;;;25.16;50.35;-12416.88;4964608;28;45584;-80
2022/09/01 05:11:54;;;;;;;;;7.67;7.67;;;;;25.15;50.28;-12755.94;4965504;28;45740;-81
2022/09/01 05:14:21;;;;;;;;;8.00;7.67;;;;;25.14;50.28;-12755.78;4967429;28;45567;-81
2022/09/01 05:16:48;;;;;;;;;9.67;9.00;;;;;25.16;50.23;-12756.06;4972752;28;46637;-80
2022/09/01 05:19:14;;;;;;;;;8.67;8.33;;;;;25.17;50.87;-12416.97;4973319;28;45807;-80
2022/09/01 05:21:44;;;;;;;;;9.00;8.33;;;;;25.13;50.58;-12416.38;4975800;28;45850;-79
2022/09/01 05:24:20;;;;;;;;;8.67;8.00;;;;;25.19;50.52;-12417.25;4975174;28;45416;-79
2022/09/01 05:26:46;;;;;;;;;8.33;6.67;;;;;25.23;50.31;-11739.19;4970382;28;46063;-79
2022/09/01 05:29:12;;;;;;;;;8.33;7.33;;;;;25.19;50.49;-11399.31;4973379;28;45530;-79
2022/09/01 05:31:44;;;;;;;;;7.67;7.33;;;;;25.30;50.33;-10721.69;4973904;28;45382;-79
2022/09/01 05:34:10;;;;;;;;;9.00;7.67;;;;;25.30;49.82;-10721.63;4975268;28;45503;-79
2022/09/01 05:36:38;;;;;;;;;7.00;7.00;;;;;25.24;50.46;-10042.03;4973486;28;46172;-80
2022/09/01 05:39:05;;;;;;;;;9.67;7.67;;;;;25.29;50.47;-10042.53;4973625;28;45354;-79
2022/09/01 05:41:34;;;;;;;;;7.33;7.33;;;;;25.31;50.07;-9703.16;4973713;28;45408;-79
2022/09/01 05:44:01;;;;;;;;;11.00;8.33;;;;;25.40;49.58;-8345.22;4970822;28;45587;-80
2022/09/01 05:46:27;;;;;;;;;10.67;9.00;;;;;25.33;49.61;-7665.09;4971970;28;46420;-81
2022/09/01 05:48:54;;;;;;;;;11.00;7.33;;;;;25.39;49.88;-7665.53;4973584;28;45454;-82
2022/09/01 05:51:25;;;;;;;;;8.67;8.67;;;;;25.37;49.79;-7665.38;4973287;28;45420;-82
2022/09/01 05:53:57;;;;;;;;;8.67;6.00;;;;;25.40;49.45;-7325.78;4969899;28;45806;-77
2022/09/01 05:56:25;;;;;;;;;10.00;9.00;;;;;25.46;49.38;-6986.22;4974088;28;46363;-78
2022/09/01 05:58:51;;;;;;;;;8.67;7.33;;;;;25.47;49.64;-5966.38;4973091;28;45754;-78
2022/09/01 06:01:20;;;;;;;;;9.00;8.00;;;;;25.45;48.96;-5286.22;4968721;28;45427;-78
2022/09/01 06:03:53;;;;;;;;;5.33;5.33;;;;;25.51;49.44;-4946.25;4971025;28;45661;-75
2022/09/01 06:06:21;;;;;;;;;8.33;8.33;;;;;25.53;48.86;-4606.16;4985565;28;46782;-79
2022/09/01 06:08:50;;;;;;;;;7.00;7.00;;;;;25.59;48.75;-3245.22;4972941;28;45544;-79
2022/09/01 06:11:17;;;;;;;;;8.33;7.33;;;;;25.67;48.79;-2904.81;4970214;28;45569;-83
2022/09/01 06:13:46;;;;;;;;;9.00;9.00;;;;;25.67;48.65;-2223.94;4983175;28;45357;-81
2022/09/01 06:16:14;;;;;;;;;10.33;9.00;;;;;25.74;48.54;-1542.75;4972711;28;45775;-79
2022/09/01 06:18:42;;;;;;;;;20.67;18.33;;;;;25.80;48.48;-861.34;4971318;28;45535;-74
2022/09/01 06:21:11;;;;;;;;;9.00;9.00;;;;;25.81;48.75;-861.28;4967601;28;45539;-74
2022/09/01 06:23:36;;;;;;;;;7.33;7.33;;;;;25.85;48.17;501.81;4973735;28;45429;-74
2022/09/01 06:26:02;;;;;;;;;10.67;9.00;;;;;25.82;48.10;160.84;4973261;28;45434;-75
2022/09/01 06:28:28;;;;;;;;;10.00;8.67;;;;;25.88;48.49;161.19;4972647;28;45408;-75
2022/09/01 06:30:56;;;;;;;;;10.00;9.00;;;;;25.76;48.79;-1202.13;4972088;28;45753;-88
2022/09/01 06:33:23;;;;;;;;;8.00;8.00;;;;;25.76;48.73;-1542.69;4972444;28;45603;-86
2022/09/01 06:35:51;;;;;;;;;9.67;7.67;;;;;25.85;48.11;-1201.78;4970893;28;48187;-80
2022/09/01 06:38:18;;;;;;;;;7.33;7.33;;;;;25.94;47.98;-179.28;4979373;28;45394;-85
2022/09/01 06:40:44;;;;;;;;;4.00;2.67;;;;;25.97;48.28;1525.28;4974681;28;45519;-85
2022/09/01 06:43:11;;;;;;;;;9.67;9.67;;;;;26.03;47.61;2207.75;4976573;28;45431;-86
2022/09/01 06:45:42;;;;;;;;;9.33;9.33;;;;;26.03;47.50;3572.16;4975992;28;46345;-87
2022/09/01 06:48:08;;;;;;;;;7.33;7.33;;;;;26.17;47.80;4256.22;4975545;28;45351;-86
2022/09/01 06:50:34;;;;;;;;;8.33;8.33;;;;;26.20;47.46;4256.66;4975187;28;45871;-86
2022/09/01 06:53:09;;;;;;;;;9.67;9.67;;;;;26.16;47.10;4938.81;4974466;28;45313;-87
2022/09/01 06:55:38;;;;;;;;;9.33;7.00;;;;;26.34;46.96;5965.69;4975204;28;45948;-87
2022/09/01 06:58:06;;;;;;;;;8.67;8.00;;;;;26.39;46.83;8358.16;4974948;28;45250;-86
2022/09/01 07:00:34;;;;;;;;;12.00;9.00;;;;;26.48;46.77;10411.31;4975451;28;45326;-87
2022/09/01 07:03:08;;;;;;;;;10.00;9.00;;;;;26.55;46.71;11097.03;4972816;28;45530;-79
2022/09/01 07:05:37;;;;;;;;;10.33;9.33;;;;;26.59;46.64;11782.19;4973203;28;46776;-81
2022/09/01 07:08:07;;;;;;;;;9.33;8.00;;;;;26.48;45.80;12463.88;4990556;28;45603;-81
2022/09/01 07:10:34;;;;;;;;;8.67;7.00;;;;;26.63;46.50;12125.41;4975405;28;45399;-81
2022/09/01 07:13:00;;;;;;;;;10.67;9.00;;;;;26.65;46.07;14865.03;4967240;28;45484;-82
2022/09/01 07:15:26;;;;;;;;;8.67;8.67;;;;;26.68;46.01;14865.78;4961693;28;46327;-82
2022/09/01 07:17:54;;;;;;;;;9.67;9.00;;;;;26.55;45.83;15204.34;4962678;28;45383;-82
2022/09/01 07:20:23;;;;;;;;;8.67;8.67;;;;;26.76;46.16;16581.13;4972995;28;46343;-81
2022/09/01 07:22:49;;;;;;;;;8.00;8.00;;;;;26.74;45.78;16580.81;4973854;28;45485;-82
2022/09/01 07:25:16;;;;;;;;;10.33;9.00;;;;;26.73;45.50;17265.91;4972335;28;45646;-82
2022/09/01 07:27:49;;;;;;;;;9.67;8.00;;;;;26.71;45.91;17265.25;4965425;28;45385;-82
2022/09/01 07:30:20;;;;;;;;;6.33;5.67;;;;;26.79;45.37;17267.78;4974859;28;45566;-82
2022/09/01 07:32:47;;;;;;;;;8.67;7.67;;;;;26.82;45.55;18297.31;4973993;28;45352;-82
2022/09/01 07:35:17;;;;;;;;;7.67;7.67;;;;;26.80;45.87;16925.19;4967839;28;46351;-82
2022/09/01 07:37:43;;;;;;;;;9.00;6.00;;;;;26.79;45.49;17610.41;4965708;28;45961;-81
2022/09/01 07:40:11;;;;;;;;;9.00;8.00;;;;;26.76;45.50;17609.53;4964124;28;45681;-82
2022/09/01 07:42:40;;;;;;;;;11.00;11.00;;;;;26.80;45.47;17267.94;4968648;28;45494;-84
2022/09/01 07:45:07;;;;;;;;;10.00;8.67;;;;;26.73;46.07;16237.81;4971483;28;45472;-83
2022/09/01 07:47:35;;;;;;;;;8.67;8.00;;;;;26.82;45.64;15897.84;4964589;28;45446;-83
2022/09/01 07:50:04;;;;;;;;;10.00;9.00;;;;;26.81;45.63;16582.94;4981238;28;45639;-82
2022/09/01 07:52:30;;;;;;;;;10.00;7.67;;;;;26.82;46.08;16583.25;4969435;28;45583;-83
2022/09/01 07:54:55;;;;;;;;;8.33;8.33;;;;;26.71;45.89;15209.38;4960397;28;48238;-83
2022/09/01 07:57:21;;;;;;;;;9.67;7.67;;;;;26.91;46.42;15215.13;4963630;28;45739;-82
2022/09/01 07:59:49;;;;;;;;;9.67;9.00;;;;;26.93;45.62;16586.69;4971715;28;45445;-84
2022/09/01 08:02:16;;;;;;;;;9.67;9.67;;;;;27.08;45.57;16248.72;4980624;28;45559;-85
2022/09/01 08:04:42;;;;;;;;;8.33;8.33;;;;;27.02;45.26;17618.13;4969214;28;47290;-86
2022/09/01 08:07:09;;;;;;;;;12.33;10.67;;;;;27.19;45.81;15566.16;4962384;28;45643;-78
2022/09/01 08:09:36;;;;;;;;;8.33;8.33;;;;;27.36;45.37;17972.94;4963903;28;47302;-82
2022/09/01 08:12:03;;;;;;;;;9.33;7.67;;;;;27.43;45.56;15916.59;4965221;28;45738;-71
2022/09/01 08:14:30;;;;;;;;;9.33;7.33;;;;;27.52;45.26;17291.91;4965545;28;46380;-72
2022/09/01 08:16:55;;;;;;;;;9.67;7.67;;;;;27.67;45.29;17296.81;4964022;28;45616;-74
2022/09/01 08:19:21;;;;;;;;;13.33;9.33;;;;;27.83;44.57;18332.03;4961574;28;45896;-73
2022/09/01 08:21:47;;;;;;;;;6.67;6.67;;;;;27.98;44.61;18681.09;4971113;28;45536;-72
2022/09/01 08:24:13;;;;;;;;;6.33;6.00;;;;;28.16;45.30;14909.06;4973121;28;46327;-72
2022/09/01 08:26:39;;;;;;;;;10.33;9.33;;;;;28.36;44.28;20757.50;4970227;28;45655;-73
2022/09/01 08:29:04;;;;;;;;;7.00;7.00;;;;;28.53;43.65;22140.19;4973827;28;45432;-73
2022/09/01 08:31:29;;;;;;;;;7.00;7.00;;;;;28.55;43.42;25239.94;4973295;28;45724;-74
2022/09/01 08:33:55;;;;;;;;;9.00;7.67;;;;;28.85;43.35;23530.66;4969131;28;46359;-73
2022/09/01 08:36:20;;;;;;;;;10.00;7.33;;;;;29.69;41.80;27818.31;4968169;28;45544;-73
2022/09/01 08:38:46;;;;;;;;;9.00;8.00;;;;;30.45;40.23;34205.50;4977879;28;45354;-74
2022/09/01 08:41:43;;;;;;;;;7.67;7.67;;;;;30.54;40.51;32433.56;4974337;28;45459;-73
2022/09/01 08:44:30;;;;;;;;;7.00;7.00;;;;;31.29;39.44;35065.72;4968884;28;46003;-72
2022/09/01 08:47:08;;;;;;;;;5.67;5.67;;;;;31.41;38.57;40561.81;4974462;28;45637;-73
2022/09/01 08:49:35;;;;;;;;;8.00;8.00;;;;;31.05;39.20;38842.09;4973483;28;45632;-73
2022/09/01 08:52:25;;;;;;;;;8.67;7.33;;;;;31.04;39.23;38697.38;4968724;28;45461;-73
2022/09/01 08:54:59;;;;;;;;;8.00;8.00;;;;;31.19;39.03;39673.06;4966664;28;45613;-74
2022/09/01 08:57:40;;;;;;;;;8.67;7.33;;;;;31.76;38.47;40477.88;4974491;28;45497;-73
2022/09/01 09:00:09;;;;;;;;;9.67;9.00;;;;;31.67;38.08;43162.63;4965063;28;45689;-73
2022/09/01 09:03:19;;;;;;;;;10.00;9.00;;;;;31.49;38.62;43486.16;4974625;28;45393;-73
2022/09/01 09:06:12;;;;;;;;;9.33;7.67;;;;;31.90;37.66;42893.97;4974315;28;46397;-73
2022/09/01 09:08:46;;;;;;;;;9.00;8.00;;;;;33.63;35.83;42441.03;4972267;28;45386;-73
2022/09/01 09:11:31;;;;;;;;;7.67;7.33;;;;;35.13;34.28;45390.94;4974276;28;45523;-73
2022/09/01 09:13:59;;;;;;;;;9.67;8.67;;;;;36.21;31.36;50805.28;4967019;28;45554;-74
2022/09/01 09:17:03;;;;;;;;;9.33;9.00;;;;;36.28;31.58;52637.69;4962503;28;48856;-73
2022/09/01 09:19:43;;;;;;;;;6.00;5.67;;;;;35.65;31.72;54254.06;4910508;28;45462;-74
2022/09/01 09:22:15;;;;;;;;;9.67;8.00;;;;;35.26;32.50;54902.97;4908328;28;45371;-74
2022/09/01 09:25:09;;;;;;;;;7.67;7.67;;;;;35.74;32.15;54505.53;4911631;28;45624;-73
2022/09/01 09:27:40;;;;;;;;;9.33;7.33;;;;;35.80;31.88;55679.44;4917201;28;47092;-73
2022/09/01 09:30:06;;;;;;;;;11.33;9.33;;;;;35.18;31.66;57010.94;4921860;28;45458;-73
2022/09/01 09:33:06;;;;;;;;;8.67;8.67;;;;;34.67;33.18;55612.41;4916086;28;45500;-74
2022/09/01 09:35:35;;;;;;;;;7.67;7.67;;;;;35.25;32.79;54603.84;4951933;28;45401;-73
2022/09/01 09:38:10;;;;;;;;;9.33;9.33;;;;;36.21;31.18;54963.56;4951989;28;46563;-73
2022/09/01 09:40:36;;;;;;;;;10.33;9.00;;;;;36.67;30.72;54818.97;4951959;28;45368;-74
2022/09/01 09:43:04;;;;;;;;;8.33;8.33;;;;;36.94;30.55;54811.47;4948927;28;45772;-74
2022/09/01 09:45:32;;;;;;;;;10.00;8.67;;;;;37.35;31.00;52925.47;4953506;28;46938;-76
2022/09/01 09:47:58;;;;;;;;;8.00;8.00;;;;;37.92;29.77;54637.03;4942731;28;46218;-76
2022/09/01 09:50:30;;;;;;;;;7.33;7.33;;;;;38.21;29.67;55230.84;4943515;28;45351;-75
2022/09/01 09:53:15;;;;;;;;;10.00;9.00;;;;;38.32;29.79;55400.50;4949627;28;45526;-77
2022/09/01 09:55:55;;;;;;;;;9.67;9.67;;;;;38.18;28.27;56921.28;4971375;28;45593;-76
2022/09/01 09:58:25;;;;;;;;;9.67;8.00;;;;;37.90;29.49;56751.75;4993127;28;47107;-75
2022/09/01 10:01:24;;;;;;;;;7.67;7.67;;;;;37.39;28.94;58507.69;4999734;28;45544;-76
2022/09/01 10:03:58;;;;;;;;;7.67;7.33;;;;;36.94;30.83;57658.50;4970507;28;45522;-76
2022/09/01 10:06:44;;;;;;;;;11.33;9.33;;;;;36.58;30.54;58337.81;4991057;28;45555;-75
2022/09/01 10:09:21;;;;;;;;;8.33;8.33;;;;;36.22;30.53;59483.41;4992231;28;46010;-75
2022/09/01 10:11:57;;;;;;;;;10.00;8.33;;;;;35.95;30.72;59088.44;4983221;28;45517;-74
2022/09/01 10:14:54;;;;;;;;;10.00;9.00;;;;;35.80;31.74;58631.78;4972267;28;45381;-74
2022/09/01 10:17:26;;;;;;;;;5.33;5.33;;;;;36.13;31.12;58327.22;4973078;28;45364;-74
2022/09/01 10:19:56;;;;;;;;;10.00;9.00;;;;;36.42;31.30;57338.88;4971403;28;47205;-74
2022/09/01 10:22:24;;;;;;;;;11.33;10.00;;;;;36.50;30.02;58810.66;4982428;28;45493;-74
2022/09/01 10:24:50;;;;;;;;;7.67;7.67;;;;;36.63;32.11;56446.50;4965290;28;45637;-74
2022/09/01 10:27:20;;;;;;;;;9.33;8.00;;;;;36.76;31.78;56802.56;4971826;28;45335;-73
2022/09/01 10:29:54;;;;;;;;;10.00;8.33;;;;;36.70;30.31;58484.00;4976261;28;45362;-74
2022/09/01 10:32:25;;;;;;;;;7.67;7.67;;;;;36.79;30.43;58539.25;4975079;28;45552;-73
2022/09/01 10:34:51;;;;;;;;;6.00;6.00;;;;;36.92;29.96;58137.63;4977201;28;45783;-74
2022/09/01 10:37:17;;;;;;;;;7.00;7.00;;;;;37.03;30.41;58414.34;4973224;28;45604;-72
2022/09/01 10:40:13;;;;;;;;;8.00;8.00;;;;;37.03;29.81;59088.13;4976036;28;45965;-73
2022/09/01 10:42:41;;;;;;;;;8.67;8.67;;;;;36.98;29.69;59205.09;4973852;28;45461;-72
2022/09/01 10:45:36;;;;;;;;;9.33;9.33;;;;;36.73;29.44;59754.88;4966307;28;45598;-73
2022/09/01 10:48:24;;;;;;;;;8.33;7.33;;;;;36.93;29.95;58721.53;4975094;28;45693;-76
2022/09/01 10:50:53;;;;;;;;;7.33;7.33;;;;;37.13;29.50;58669.16;4975709;28;46032;-74
2022/09/01 10:53:34;;;;;;;;;8.67;7.33;;;;;37.09;29.45;59894.75;4969949;28;45712;-77
2022/09/01 10:56:23;;;;;;;;;9.33;9.33;;;;;36.63;29.38;60695.97;4974563;28;45447;-73
2022/09/01 10:58:57;;;;;;;;;10.67;9.00;;;;;36.10;29.85;61318.44;4975009;28;45479;-77
2022/09/01 11:01:42;;;;;;;;;9.67;8.67;;;;;35.61;30.39;61539.91;4977989;28;47279;-77
2022/09/01 11:04:10;;;;;;;;;8.00;8.00;;;;;35.20;30.48;62040.66;4974254;28;45465;-76
2022/09/01 11:06:44;;;;;;;;;7.00;7.00;;;;;35.01;30.80;62092.31;4975697;28;45339;-81
2022/09/01 11:09:26;;;;;;;;;8.33;7.33;;;;;34.86;30.63;62423.09;4965093;28;45472;-76
2022/09/01 11:11:54;;;;;;;;;9.00;9.00;;;;;34.70;30.59;62512.97;4974576;28;47226;-77
2022/09/01 11:14:22;;;;;;;;;8.00;8.00;;;;;34.63;30.55;62409.50;4975599;28;45473;-77
2022/09/01 11:17:24;;;;;;;;;6.33;6.33;;;;;34.87;31.16;61856.31;4975357;28;45458;-72
2022/09/01 11:19:54;;;;;;;;;9.00;9.00;;;;;35.20;30.91;61634.97;4969683;28;45400;-73
2022/09/01 11:22:34;;;;;;;;;7.33;7.33;;;;;35.52;30.49;61283.31;4974634;28;48005;-72
2022/09/01 11:25:13;;;;;;;;;8.00;8.00;;;;;35.87;30.29;60602.09;4974644;28;45533;-73
2022/09/01 11:27:47;;;;;;;;;7.33;7.00;;;;;36.10;29.93;60674.94;4975285;28;45462;-73
2022/09/01 11:30:35;;;;;;;;;6.00;6.00;;;;;35.99;30.14;60922.25;4969633;28;45431;-75
2022/09/01 11:33:18;;;;;;;;;6.33;6.33;;;;;35.90;29.98;61149.09;4973888;28;48476;-72
2022/09/01 11:35:45;;;;;;;;;7.67;6.67;;;;;35.70;30.57;61244.53;4975265;28;45455;-74
2022/09/01 11:38:15;;;;;;;;;9.00;6.33;;;;;35.46;30.32;61900.22;4975342;28;45428;-74
2022/09/01 11:40:41;;;;;;;;;5.00;5.00;;;;;35.15;29.85;62408.59;4975863;28;45594;-74
2022/09/01 11:43:12;;;;;;;;;7.00;7.00;;;;;34.73;30.94;62384.53;4969860;28;45356;-73
2022/09/01 11:45:57;;;;;;;;;7.00;7.00;;;;;34.34;31.67;62014.47;4975169;28;45441;-73
2022/09/01 11:48:25;;;;;;;;;7.00;7.00;;;;;34.14;31.43;62728.16;4969828;28;45377;-71
2022/09/01 11:50:58;;;;;;;;;5.00;4.00;;;;;33.95;32.02;62369.13;4974377;28;45588;-73